sensor_id;sensor_type;location;lat;lon;timestamp;pressure;altitude;pressure_sealevel;temperature;humidity
46199;BME280;31928;52.104;10.030;2023-02-14T00:02:22;102630.28;;;6.32;59.51
46199;BME280;31928;52.104;10.030;2023-02-14T00:04:48;102624.34;;;6.29;59.77
46199;BME280;31928;52.104;10.030;2023-02-14T00:07:15;102621.81;;;6.27;59.65
46199;BME280;31928;52.104;10.030;2023-02-14T00:09:41;102623.75;;;6.25;59.69
46199;BME280;31928;52.104;10.030;2023-02-14T00:12:08;102618.44;;;6.25;59.66
46199;BME280;31928;52.104;10.030;2023-02-14T00:14:34;102623.16;;;6.22;59.66
46199;BME280;31928;52.104;10.030;2023-02-14T00:17:19;102615.31;;;6.20;59.54
46199;BME280;31928;52.104;10.030;2023-02-14T00:19:46;102617.28;;;6.18;59.25
46199;BME280;31928;52.104;10.030;2023-02-14T00:22:12;102615.59;;;6.17;59.48
46199;BME280;31928;52.104;10.030;2023-02-14T00:24:39;102611.22;;;6.16;59.35
46199;BME280;31928;52.104;10.030;2023-02-14T00:27:06;102612.47;;;6.12;59.32
46199;BME280;31928;52.104;10.030;2023-02-14T00:29:33;102611.63;;;6.12;58.96
46199;BME280;31928;52.104;10.030;2023-02-14T00:32:00;102622.41;;;6.10;59.17
46199;BME280;31928;52.104;10.030;2023-02-14T00:34:26;102608.50;;;6.07;58.95
46199;BME280;31928;52.104;10.030;2023-02-14T00:36:53;102621.28;;;6.33;58.17
46199;BME280;31928;52.104;10.030;2023-02-14T00:39:20;102623.63;;;6.06;58.74
46199;BME280;31928;52.104;10.030;2023-02-14T00:41:46;102630.19;;;6.02;58.86
46199;BME280;31928;52.104;10.030;2023-02-14T00:44:13;102626.09;;;5.98;59.04
46199;BME280;31928;52.104;10.030;2023-02-14T00:46:40;102628.19;;;5.95;59.04
46199;BME280;31928;52.104;10.030;2023-02-14T00:49:07;102613.41;;;5.91;58.80
46199;BME280;31928;52.104;10.030;2023-02-14T00:51:34;102621.53;;;5.90;58.74
46199;BME280;31928;52.104;10.030;2023-02-14T00:54:00;102621.81;;;5.87;58.97
46199;BME280;31928;52.104;10.030;2023-02-14T00:56:27;102623.38;;;6.09;58.10
46199;BME280;31928;52.104;10.030;2023-02-14T00:58:54;102631.00;;;5.83;58.69
46199;BME280;31928;52.104;10.030;2023-02-14T01:01:20;102630.56;;;5.78;58.62
46199;BME280;31928;52.104;10.030;2023-02-14T01:03:47;102626.81;;;6.00;58.04
46199;BME280;31928;52.104;10.030;2023-02-14T01:06:14;102623.91;;;5.72;58.69
46199;BME280;31928;52.104;10.030;2023-02-14T01:08:41;102634.19;;;5.66;58.53
46199;BME280;31928;52.104;10.030;2023-02-14T01:11:12;102635.84;;;5.89;57.74
46199;BME280;31928;52.104;10.030;2023-02-14T01:13:39;102636.25;;;5.62;58.71
46199;BME280;31928;52.104;10.030;2023-02-14T01:16:07;102630.59;;;5.56;58.91
46199;BME280;31928;52.104;10.030;2023-02-14T01:18:35;102629.28;;;5.50;58.73
46199;BME280;31928;52.104;10.030;2023-02-14T01:21:12;102630.72;;;5.54;58.90
46199;BME280;31928;52.104;10.030;2023-02-14T01:23:39;102626.69;;;5.71;58.04
46199;BME280;31928;52.104;10.030;2023-02-14T01:26:07;102629.66;;;5.46;58.72
46199;BME280;31928;52.104;10.030;2023-02-14T01:28:34;102630.88;;;5.42;58.72
46199;BME280;31928;52.104;10.030;2023-02-14T01:31:06;102634.28;;;5.44;59.00
46199;BME280;31928;52.104;10.030;2023-02-14T01:33:33;102625.09;;;5.37;58.90
46199;BME280;31928;52.104;10.030;2023-02-14T01:35:59;102641.03;;;5.37;58.92
46199;BME280;31928;52.104;10.030;2023-02-14T01:38:26;102632.50;;;5.34;58.98
46199;BME280;31928;52.104;10.030;2023-02-14T01:40:52;102636.81;;;5.34;58.81
46199;BME280;31928;52.104;10.030;2023-02-14T01:43:19;102632.59;;;5.32;58.86
46199;BME280;31928;52.104;10.030;2023-02-14T01:45:45;102633.59;;;5.31;59.11
46199;BME280;31928;52.104;10.030;2023-02-14T01:48:12;102642.53;;;5.30;59.15
46199;BME280;31928;52.104;10.030;2023-02-14T01:50:42;102640.81;;;5.29;59.11
46199;BME280;31928;52.104;10.030;2023-02-14T01:53:18;102633.81;;;5.28;59.30
46199;BME280;31928;52.104;10.030;2023-02-14T01:55:51;102632.97;;;5.28;59.33
46199;BME280;31928;52.104;10.030;2023-02-14T01:58:25;102631.41;;;5.25;59.39
46199;BME280;31928;52.104;10.030;2023-02-14T02:00:52;102623.91;;;5.19;59.67
46199;BME280;31928;52.104;10.030;2023-02-14T02:03:29;102634.31;;;5.22;59.57
46199;BME280;31928;52.104;10.030;2023-02-14T02:06:11;102628.75;;;5.25;59.62
46199;BME280;31928;52.104;10.030;2023-02-14T02:08:42;102616.94;;;5.18;59.75
46199;BME280;31928;52.104;10.030;2023-02-14T02:11:13;102615.50;;;5.14;60.13
46199;BME280;31928;52.104;10.030;2023-02-14T02:13:39;102610.19;;;5.14;59.85
46199;BME280;31928;52.104;10.030;2023-02-14T02:16:29;102610.53;;;5.21;60.08
46199;BME280;31928;52.104;10.030;2023-02-14T02:37:59;102585.38;;;5.25;59.28
46199;BME280;31928;52.104;10.030;2023-02-14T02:40:59;102588.13;;;5.23;59.18
46199;BME280;31928;52.104;10.030;2023-02-14T02:43:52;102584.78;;;5.21;59.58
46199;BME280;31928;52.104;10.030;2023-02-14T02:46:24;102574.63;;;5.15;59.31
46199;BME280;31928;52.104;10.030;2023-02-14T02:49:29;102576.19;;;5.18;59.07
46199;BME280;31928;52.104;10.030;2023-02-14T02:55:25;102573.19;;;5.11;59.11
46199;BME280;31928;52.104;10.030;2023-02-14T02:57:55;102577.94;;;5.08;59.31
46199;BME280;31928;52.104;10.030;2023-02-14T03:00:23;102580.69;;;5.06;59.49
46199;BME280;31928;52.104;10.030;2023-02-14T03:02:51;102580.69;;;5.06;59.44
46199;BME280;31928;52.104;10.030;2023-02-14T03:05:53;102573.69;;;5.05;59.27
46199;BME280;31928;52.104;10.030;2023-02-14T03:08:19;102568.59;;;5.02;59.31
46199;BME280;31928;52.104;10.030;2023-02-14T03:10:46;102565.94;;;5.02;59.10
46199;BME280;31928;52.104;10.030;2023-02-14T03:16:23;102568.97;;;5.09;59.15
46199;BME280;31928;52.104;10.030;2023-02-14T03:19:16;102573.44;;;5.08;58.97
46199;BME280;31928;52.104;10.030;2023-02-14T03:22:07;102573.69;;;5.05;59.20
46199;BME280;31928;52.104;10.030;2023-02-14T03:27:46;102561.84;;;4.98;59.27
46199;BME280;31928;52.104;10.030;2023-02-14T03:30:40;102570.56;;;5.00;59.41
46199;BME280;31928;52.104;10.030;2023-02-14T03:36:28;102559.94;;;5.00;59.39
46199;BME280;31928;52.104;10.030;2023-02-14T03:39:20;102558.38;;;4.98;59.08
46199;BME280;31928;52.104;10.030;2023-02-14T03:41:52;102548.47;;;4.89;59.29
46199;BME280;31928;52.104;10.030;2023-02-14T03:44:21;102540.84;;;4.84;59.06
46199;BME280;31928;52.104;10.030;2023-02-14T03:46:54;102541.84;;;4.83;59.03
46199;BME280;31928;52.104;10.030;2023-02-14T03:49:26;102541.84;;;4.83;59.16
46199;BME280;31928;52.104;10.030;2023-02-14T03:51:56;102540.38;;;4.79;59.01
46199;BME280;31928;52.104;10.030;2023-02-14T03:54:24;102534.38;;;4.77;58.93
46199;BME280;31928;52.104;10.030;2023-02-14T03:56:59;102528.22;;;4.77;58.80
46199;BME280;31928;52.104;10.030;2023-02-14T03:59:27;102524.34;;;4.70;58.87
46199;BME280;31928;52.104;10.030;2023-02-14T04:02:05;102526.66;;;4.75;59.00
46199;BME280;31928;52.104;10.030;2023-02-14T04:04:37;102525.31;;;4.69;58.98
46199;BME280;31928;52.104;10.030;2023-02-14T04:07:20;102519.03;;;4.70;58.83
46199;BME280;31928;52.104;10.030;2023-02-14T04:09:47;102518.94;;;4.61;58.72
46199;BME280;31928;52.104;10.030;2023-02-14T04:12:15;102523.50;;;4.59;58.86
46199;BME280;31928;52.104;10.030;2023-02-14T04:14:49;102530.91;;;4.55;58.73
46199;BME280;31928;52.104;10.030;2023-02-14T04:17:15;102530.16;;;4.53;58.28
46199;BME280;31928;52.104;10.030;2023-02-14T04:20:00;102528.59;;;4.51;58.53
46199;BME280;31928;52.104;10.030;2023-02-14T04:22:26;102519.88;;;4.49;58.64
46199;BME280;31928;52.104;10.030;2023-02-14T04:24:53;102518.34;;;4.46;58.16
46199;BME280;31928;52.104;10.030;2023-02-14T04:27:19;102515.09;;;4.43;58.19
46199;BME280;31928;52.104;10.030;2023-02-14T04:29:48;102521.34;;;4.42;58.27
46199;BME280;31928;52.104;10.030;2023-02-14T04:32:18;102524.13;;;4.40;58.30
46199;BME280;31928;52.104;10.030;2023-02-14T04:34:45;102526.44;;;4.34;58.26
46199;BME280;31928;52.104;10.030;2023-02-14T04:37:13;102528.34;;;4.32;58.45
46199;BME280;31928;52.104;10.030;2023-02-14T04:39:40;102529.44;;;4.29;58.32
46199;BME280;31928;52.104;10.030;2023-02-14T04:42:07;102529.56;;;4.28;58.15
46199;BME280;31928;52.104;10.030;2023-02-14T04:44:34;102524.50;;;4.25;58.22
46199;BME280;31928;52.104;10.030;2023-02-14T04:47:04;102527.41;;;4.22;58.48
46199;BME280;31928;52.104;10.030;2023-02-14T04:49:31;102526.66;;;4.20;58.80
46199;BME280;31928;52.104;10.030;2023-02-14T04:51:58;102525.97;;;4.18;58.89
46199;BME280;31928;52.104;10.030;2023-02-14T04:54:25;102530.41;;;4.17;58.74
46199;BME280;31928;52.104;10.030;2023-02-14T04:56:51;102523.41;;;4.16;58.64
46199;BME280;31928;52.104;10.030;2023-02-14T04:59:18;102533.19;;;4.16;59.11
46199;BME280;31928;52.104;10.030;2023-02-14T05:01:45;102533.19;;;4.16;58.87
46199;BME280;31928;52.104;10.030;2023-02-14T05:04:11;102529.78;;;4.14;59.19
46199;BME280;31928;52.104;10.030;2023-02-14T05:06:38;102529.78;;;4.14;59.20
46199;BME280;31928;52.104;10.030;2023-02-14T05:09:04;102528.84;;;4.15;61.70
46199;BME280;31928;52.104;10.030;2023-02-14T05:11:31;102520.88;;;4.48;61.45
46199;BME280;31928;52.104;10.030;2023-02-14T05:13:57;102528.22;;;4.66;67.09
46199;BME280;31928;52.104;10.030;2023-02-14T05:16:24;102526.44;;;5.09;69.49
46199;BME280;31928;52.104;10.030;2023-02-14T05:18:51;102517.34;;;5.63;68.29
46199;BME280;31928;52.104;10.030;2023-02-14T05:21:17;102515.19;;;6.08;71.24
46199;BME280;31928;52.104;10.030;2023-02-14T05:23:44;102518.50;;;6.60;72.79
46199;BME280;31928;52.104;10.030;2023-02-14T05:26:10;102511.31;;;7.10;73.37
46199;BME280;31928;52.104;10.030;2023-02-14T05:28:37;102515.94;;;7.64;71.78
46199;BME280;31928;52.104;10.030;2023-02-14T05:31:07;102510.44;;;7.94;72.27
46199;BME280;31928;52.104;10.030;2023-02-14T05:33:34;102504.47;;;8.19;70.10
46199;BME280;31928;52.104;10.030;2023-02-14T05:36:01;102506.28;;;8.54;67.27
46199;BME280;31928;52.104;10.030;2023-02-14T05:38:29;102507.75;;;8.39;64.97
46199;BME280;31928;52.104;10.030;2023-02-14T05:40:55;102501.03;;;8.36;61.76
46199;BME280;31928;52.104;10.030;2023-02-14T05:43:22;102502.34;;;8.58;61.58
46199;BME280;31928;52.104;10.030;2023-02-14T05:45:49;102510.78;;;8.18;58.74
46199;BME280;31928;52.104;10.030;2023-02-14T05:48:16;102514.19;;;8.01;57.25
46199;BME280;31928;52.104;10.030;2023-02-14T05:50:43;102516.22;;;7.80;56.18
46199;BME280;31928;52.104;10.030;2023-02-14T05:53:11;102517.19;;;7.60;55.18
46199;BME280;31928;52.104;10.030;2023-02-14T05:55:37;102516.22;;;7.42;54.32
46199;BME280;31928;52.104;10.030;2023-02-14T05:58:04;102515.22;;;7.24;54.24
46199;BME280;31928;52.104;10.030;2023-02-14T06:00:31;102515.84;;;7.37;56.23
46199;BME280;31928;52.104;10.030;2023-02-14T06:02:57;102519.25;;;6.91;54.85
46199;BME280;31928;52.104;10.030;2023-02-14T06:05:24;102513.06;;;6.71;55.16
46199;BME280;31928;52.104;10.030;2023-02-14T06:07:50;102514.53;;;6.55;58.86
46199;BME280;31928;52.104;10.030;2023-02-14T06:10:21;102513.41;;;6.48;62.52
46199;BME280;31928;52.104;10.030;2023-02-14T06:12:49;102510.06;;;6.56;65.51
46199;BME280;31928;52.104;10.030;2023-02-14T06:15:16;102515.72;;;6.71;67.80
46199;BME280;31928;52.104;10.030;2023-02-14T06:17:43;102513.53;;;6.95;68.78
46199;BME280;31928;52.104;10.030;2023-02-14T06:20:10;102511.31;;;7.19;69.94
46199;BME280;31928;52.104;10.030;2023-02-14T06:22:37;102520.31;;;7.46;70.42
46199;BME280;31928;52.104;10.030;2023-02-14T06:25:05;102517.06;;;7.71;69.43
46199;BME280;31928;52.104;10.030;2023-02-14T06:27:31;102510.13;;;7.97;66.50
46199;BME280;31928;52.104;10.030;2023-02-14T06:29:58;102509.75;;;8.38;64.59
46199;BME280;31928;52.104;10.030;2023-02-14T06:32:25;102505.53;;;8.35;56.83
46199;BME280;31928;52.104;10.030;2023-02-14T06:34:52;102506.06;;;8.38;55.18
46199;BME280;31928;52.104;10.030;2023-02-14T06:37:18;102516.22;;;8.35;53.69
46199;BME280;31928;52.104;10.030;2023-02-14T06:39:45;102513.47;;;8.27;53.50
46199;BME280;31928;52.104;10.030;2023-02-14T06:42:12;102518.38;;;8.13;53.19
46199;BME280;31928;52.104;10.030;2023-02-14T06:44:38;102526.16;;;7.97;52.70
46199;BME280;31928;52.104;10.030;2023-02-14T06:47:05;102526.03;;;7.79;53.10
46199;BME280;31928;52.104;10.030;2023-02-14T06:49:31;102524.22;;;7.61;53.56
46199;BME280;31928;52.104;10.030;2023-02-14T06:51:58;102530.44;;;7.43;54.20
46199;BME280;31928;52.104;10.030;2023-02-14T06:54:24;102529.56;;;7.23;54.87
46199;BME280;31928;52.104;10.030;2023-02-14T06:56:51;102530.94;;;7.09;55.27
46199;BME280;31928;52.104;10.030;2023-02-14T06:59:17;102537.53;;;6.95;55.92
46199;BME280;31928;52.104;10.030;2023-02-14T07:01:44;102541.28;;;6.83;56.48
46199;BME280;31928;52.104;10.030;2023-02-14T07:04:10;102532.56;;;6.72;56.56
46199;BME280;31928;52.104;10.030;2023-02-14T07:06:37;102531.41;;;6.65;56.50
46199;BME280;31928;52.104;10.030;2023-02-14T07:09:04;102524.44;;;6.83;56.99
46199;BME280;31928;52.104;10.030;2023-02-14T07:11:30;102536.84;;;6.54;57.13
46199;BME280;31928;52.104;10.030;2023-02-14T07:13:57;102531.31;;;6.46;57.46
46199;BME280;31928;52.104;10.030;2023-02-14T07:16:23;102533.56;;;6.41;58.29
46199;BME280;31928;52.104;10.030;2023-02-14T07:18:50;102536.63;;;6.37;58.16
46199;BME280;31928;52.104;10.030;2023-02-14T07:21:17;102541.13;;;6.36;58.65
46199;BME280;31928;52.104;10.030;2023-02-14T07:23:43;102532.41;;;6.34;59.19
46199;BME280;31928;52.104;10.030;2023-02-14T07:26:13;102533.38;;;6.33;59.54
46199;BME280;31928;52.104;10.030;2023-02-14T07:28:44;102529.88;;;6.33;59.54
46199;BME280;31928;52.104;10.030;2023-02-14T07:31:11;102529.47;;;6.37;60.37
46199;BME280;31928;52.104;10.030;2023-02-14T07:33:37;102524.84;;;6.39;60.24
46199;BME280;31928;52.104;10.030;2023-02-14T07:36:05;102527.97;;;6.44;60.88
46199;BME280;31928;52.104;10.030;2023-02-14T07:38:33;102522.38;;;6.47;61.03
46199;BME280;31928;52.104;10.030;2023-02-14T07:40:59;102520.13;;;6.52;61.35
46199;BME280;31928;52.104;10.030;2023-02-14T07:43:27;102524.09;;;6.57;61.23
46199;BME280;31928;52.104;10.030;2023-02-14T07:45:53;102520.81;;;6.84;59.88
46199;BME280;31928;52.104;10.030;2023-02-14T07:48:20;102525.53;;;6.71;61.06
46199;BME280;31928;52.104;10.030;2023-02-14T07:50:47;102522.31;;;6.77;60.75
46199;BME280;31928;52.104;10.030;2023-02-14T07:53:14;102520.94;;;6.82;60.67
46199;BME280;31928;52.104;10.030;2023-02-14T07:55:40;102521.25;;;6.89;60.42
46199;BME280;31928;52.104;10.030;2023-02-14T07:58:07;102515.47;;;6.93;60.89
46199;BME280;31928;52.104;10.030;2023-02-14T08:00:33;102516.63;;;7.00;60.26
46199;BME280;31928;52.104;10.030;2023-02-14T08:03:00;102516.94;;;7.07;60.68
46199;BME280;31928;52.104;10.030;2023-02-14T08:05:26;102512.72;;;7.14;61.09
46199;BME280;31928;52.104;10.030;2023-02-14T08:07:53;102523.38;;;7.23;61.06
46199;BME280;31928;52.104;10.030;2023-02-14T08:10:19;102520.75;;;7.32;61.35
46199;BME280;31928;52.104;10.030;2023-02-14T08:12:46;102517.09;;;7.43;61.47
46199;BME280;31928;52.104;10.030;2023-02-14T08:15:30;102526.63;;;7.55;61.28
46199;BME280;31928;52.104;10.030;2023-02-14T08:18:16;102524.50;;;7.68;61.56
46199;BME280;31928;52.104;10.030;2023-02-14T08:20:47;102521.25;;;7.83;61.54
46199;BME280;31928;52.104;10.030;2023-02-14T08:23:15;102521.09;;;7.94;61.67
46199;BME280;31928;52.104;10.030;2023-02-14T08:25:42;102516.28;;;8.07;60.51
46199;BME280;31928;52.104;10.030;2023-02-14T08:28:09;102520.19;;;8.22;61.21
46199;BME280;31928;52.104;10.030;2023-02-14T08:30:36;102515.59;;;8.50;60.52
46199;BME280;31928;52.104;10.030;2023-02-14T08:33:04;102521.63;;;8.52;61.29
46199;BME280;31928;52.104;10.030;2023-02-14T08:35:30;102514.09;;;8.65;60.76
46199;BME280;31928;52.104;10.030;2023-02-14T08:37:57;102514.31;;;8.81;60.64
46199;BME280;31928;52.104;10.030;2023-02-14T08:40:23;102522.69;;;8.96;59.36
46199;BME280;31928;52.104;10.030;2023-02-14T08:42:50;102514.28;;;9.25;59.85
46199;BME280;31928;52.104;10.030;2023-02-14T08:45:17;102516.81;;;9.27;59.50
46199;BME280;31928;52.104;10.030;2023-02-14T08:47:43;102512.63;;;9.42;59.07
46199;BME280;31928;52.104;10.030;2023-02-14T08:50:13;102512.75;;;9.57;58.67
46199;BME280;31928;52.104;10.030;2023-02-14T08:52:40;102521.22;;;9.70;57.52
46199;BME280;31928;52.104;10.030;2023-02-14T08:55:09;102512.97;;;9.81;56.62
46199;BME280;31928;52.104;10.030;2023-02-14T08:57:37;102507.50;;;9.91;56.46
46199;BME280;31928;52.104;10.030;2023-02-14T09:00:05;102512.81;;;10.00;55.83
46199;BME280;31928;52.104;10.030;2023-02-14T09:02:32;102509.31;;;10.08;56.27
46199;BME280;31928;52.104;10.030;2023-02-14T09:05:00;102509.50;;;10.14;56.30
46199;BME280;31928;52.104;10.030;2023-02-14T09:07:27;102510.59;;;10.21;56.41
46199;BME280;31928;52.104;10.030;2023-02-14T09:09:53;102507.94;;;10.29;56.05
46199;BME280;31928;52.104;10.030;2023-02-14T09:12:20;102509.66;;;10.38;55.68
46199;BME280;31928;52.104;10.030;2023-02-14T09:14:47;102505.25;;;10.62;57.06
46199;BME280;31928;52.104;10.030;2023-02-14T09:17:14;102498.00;;;10.55;55.21
46199;BME280;31928;52.104;10.030;2023-02-14T09:19:41;102497.38;;;10.61;54.60
46199;BME280;31928;52.104;10.030;2023-02-14T09:22:09;102496.41;;;10.70;54.97
46199;BME280;31928;52.104;10.030;2023-02-14T09:24:37;102503.13;;;10.74;54.56
46199;BME280;31928;52.104;10.030;2023-02-14T09:27:04;102490.91;;;10.79;54.49
46199;BME280;31928;52.104;10.030;2023-02-14T09:29:32;102489.41;;;10.84;54.03
46199;BME280;31928;52.104;10.030;2023-02-14T09:32:00;102502.34;;;10.89;53.95
46199;BME280;31928;52.104;10.030;2023-02-14T09:34:28;102489.13;;;10.95;53.84
46199;BME280;31928;52.104;10.030;2023-02-14T09:36:55;102487.78;;;10.99;53.61
46199;BME280;31928;52.104;10.030;2023-02-14T09:39:40;102487.97;;;11.06;53.59
46199;BME280;31928;52.104;10.030;2023-02-14T09:42:44;102496.19;;;11.20;54.81
46199;BME280;31928;52.104;10.030;2023-02-14T09:45:17;102489.84;;;11.21;53.75
46199;BME280;31928;52.104;10.030;2023-02-14T09:50:28;102485.16;;;11.39;54.37
46199;BME280;31928;52.104;10.030;2023-02-14T09:52:59;102480.78;;;11.46;53.66
46199;BME280;31928;52.104;10.030;2023-02-14T09:55:29;102476.13;;;11.56;53.53
46199;BME280;31928;52.104;10.030;2023-02-14T09:58:11;102486.84;;;11.72;53.35
46199;BME280;31928;52.104;10.030;2023-02-14T10:01:12;102473.41;;;11.88;54.37
46199;BME280;31928;52.104;10.030;2023-02-14T10:10:01;102484.38;;;12.40;53.34
46199;BME280;31928;52.104;10.030;2023-02-14T10:12:38;102476.59;;;12.53;52.23
46199;BME280;31928;52.104;10.030;2023-02-14T10:15:13;102476.88;;;12.66;52.40
46199;BME280;31928;52.104;10.030;2023-02-14T10:17:43;102479.84;;;12.79;51.54
46199;BME280;31928;52.104;10.030;2023-02-14T10:20:31;102482.63;;;12.93;51.92
46199;BME280;31928;52.104;10.030;2023-02-14T10:25:46;102475.63;;;13.15;50.43
46199;BME280;31928;52.104;10.030;2023-02-14T10:28:16;102470.81;;;13.24;50.14
46199;BME280;31928;52.104;10.030;2023-02-14T10:30:58;102475.63;;;13.37;50.62
46199;BME280;31928;52.104;10.030;2023-02-14T10:33:29;102466.63;;;13.44;49.33
46199;BME280;31928;52.104;10.030;2023-02-14T10:36:03;102462.47;;;13.56;49.59
46199;BME280;31928;52.104;10.030;2023-02-14T10:41:30;102467.69;;;13.80;50.29
46199;BME280;31928;52.104;10.030;2023-02-14T10:44:16;102467.88;;;13.93;50.37
46199;BME280;31928;52.104;10.030;2023-02-14T10:47:06;102458.97;;;14.07;50.57
46199;BME280;31928;52.104;10.030;2023-02-14T10:54:45;102453.50;;;14.43;48.41
46199;BME280;31928;52.104;10.030;2023-02-14T10:59:59;102450.19;;;14.77;48.87
46199;BME280;31928;52.104;10.030;2023-02-14T11:02:38;102439.81;;;14.95;48.16
46199;BME280;31928;52.104;10.030;2023-02-14T11:05:07;102433.25;;;15.03;46.50
46199;BME280;31928;52.104;10.030;2023-02-14T11:07:44;102428.00;;;15.16;46.00
46199;BME280;31928;52.104;10.030;2023-02-14T11:10:12;102430.22;;;15.27;46.84
46199;BME280;31928;52.104;10.030;2023-02-14T11:12:40;102426.78;;;15.40;45.83
46199;BME280;31928;52.104;10.030;2023-02-14T11:15:09;102424.19;;;15.53;45.32
46199;BME280;31928;52.104;10.030;2023-02-14T11:17:37;102425.72;;;15.62;45.11
46199;BME280;31928;52.104;10.030;2023-02-14T11:20:20;102407.56;;;15.76;47.69
46199;BME280;31928;52.104;10.030;2023-02-14T11:22:48;102412.75;;;15.78;44.62
46199;BME280;31928;52.104;10.030;2023-02-14T11:25:21;102412.59;;;15.86;45.36
46199;BME280;31928;52.104;10.030;2023-02-14T11:27:53;102412.41;;;15.87;45.00
46199;BME280;31928;52.104;10.030;2023-02-14T11:30:35;102410.34;;;15.89;45.20
46199;BME280;31928;52.104;10.030;2023-02-14T11:33:05;102407.00;;;15.87;44.32
46199;BME280;31928;52.104;10.030;2023-02-14T11:35:34;102403.47;;;15.87;44.03
46199;BME280;31928;52.104;10.030;2023-02-14T11:38:08;102397.44;;;15.91;45.13
46199;BME280;31928;52.104;10.030;2023-02-14T11:40:53;102400.59;;;15.95;45.37
46199;BME280;31928;52.104;10.030;2023-02-14T11:43:33;102388.78;;;16.02;45.98
46199;BME280;31928;52.104;10.030;2023-02-14T11:46:27;102390.31;;;16.11;45.48
46199;BME280;31928;52.104;10.030;2023-02-14T11:51:31;102387.31;;;16.33;44.88
46199;BME280;31928;52.104;10.030;2023-02-14T11:54:00;102379.44;;;16.45;44.42
46199;BME280;31928;52.104;10.030;2023-02-14T12:02:35;102361.47;;;16.90;45.99
46199;BME280;31928;52.104;10.030;2023-02-14T12:05:18;102375.63;;;16.99;45.33
46199;BME280;31928;52.104;10.030;2023-02-14T12:07:50;102361.50;;;17.10;43.72
46199;BME280;31928;52.104;10.030;2023-02-14T12:10:25;102356.28;;;17.21;43.02
46199;BME280;31928;52.104;10.030;2023-02-14T12:15:39;102352.97;;;17.45;43.35
46199;BME280;31928;52.104;10.030;2023-02-14T12:21:03;102352.34;;;17.62;41.06
46199;BME280;31928;52.104;10.030;2023-02-14T12:26:30;102337.91;;;17.88;43.64
46199;BME280;31928;52.104;10.030;2023-02-14T12:31:37;102341.19;;;18.03;39.91
46199;BME280;31928;52.104;10.030;2023-02-14T12:34:04;102327.38;;;18.10;39.30
46199;BME280;31928;52.104;10.030;2023-02-14T12:36:58;102318.78;;;18.26;42.64
46199;BME280;31928;52.104;10.030;2023-02-14T12:39:47;102315.00;;;18.34;41.40
46199;BME280;31928;52.104;10.030;2023-02-14T12:44:57;102314.72;;;18.48;38.52
46199;BME280;31928;52.104;10.030;2023-02-14T12:47:42;102298.94;;;18.63;41.37
46199;BME280;31928;52.104;10.030;2023-02-14T12:53:41;102306.53;;;18.85;41.86
46199;BME280;31928;52.104;10.030;2023-02-14T13:04:37;102282.91;;;19.34;42.08
46199;BME280;31928;52.104;10.030;2023-02-14T13:07:40;102281.50;;;19.50;42.26
46199;BME280;31928;52.104;10.030;2023-02-14T13:10:14;102276.22;;;19.55;38.75
46199;BME280;31928;52.104;10.030;2023-02-14T13:15:34;102278.97;;;19.73;37.04
46199;BME280;31928;52.104;10.030;2023-02-14T13:20:40;102252.41;;;19.86;38.07
46199;BME280;31928;52.104;10.030;2023-02-14T13:23:35;102251.97;;;19.89;36.82
46199;BME280;31928;52.104;10.030;2023-02-14T13:28:31;102241.09;;;19.89;36.38
46199;BME280;31928;52.104;10.030;2023-02-14T13:30:59;102243.38;;;19.92;37.10
46199;BME280;31928;52.104;10.030;2023-02-14T13:33:32;102237.03;;;19.98;37.14
46199;BME280;31928;52.104;10.030;2023-02-14T13:36:03;102238.22;;;20.02;36.75
46199;BME280;31928;52.104;10.030;2023-02-14T13:38:31;102234.81;;;20.06;36.50
46199;BME280;31928;52.104;10.030;2023-02-14T13:40:59;102232.00;;;20.13;36.30
46199;BME280;31928;52.104;10.030;2023-02-14T13:44:06;102232.31;;;20.34;40.47
46199;BME280;31928;52.104;10.030;2023-02-14T13:51:46;102221.00;;;20.49;38.32
46199;BME280;31928;52.104;10.030;2023-02-14T13:57:00;102219.25;;;20.65;35.92
46199;BME280;31928;52.104;10.030;2023-02-14T13:59:36;102220.13;;;20.77;37.31
46199;BME280;31928;52.104;10.030;2023-02-14T14:02:40;102221.94;;;20.95;39.59
46199;BME280;31928;52.104;10.030;2023-02-14T14:11:12;102217.31;;;20.95;37.40
46199;BME280;31928;52.104;10.030;2023-02-14T14:16:56;102211.03;;;20.95;37.33
46199;BME280;31928;52.104;10.030;2023-02-14T14:22:00;102200.25;;;21.11;40.01
46199;BME280;31928;52.104;10.030;2023-02-14T14:24:29;102207.59;;;20.88;35.68
46199;BME280;31928;52.104;10.030;2023-02-14T14:30:02;102199.06;;;20.84;36.29
46199;BME280;31928;52.104;10.030;2023-02-14T14:32:35;102202.13;;;20.76;35.22
46199;BME280;31928;52.104;10.030;2023-02-14T14:35:06;102191.69;;;20.73;35.35
46199;BME280;31928;52.104;10.030;2023-02-14T14:37:35;102192.13;;;20.70;35.65
46199;BME280;31928;52.104;10.030;2023-02-14T14:40:05;102190.94;;;20.66;35.29
46199;BME280;31928;52.104;10.030;2023-02-14T14:42:36;102188.44;;;20.65;36.08
46199;BME280;31928;52.104;10.030;2023-02-14T14:45:19;102179.56;;;20.69;37.35
46199;BME280;31928;52.104;10.030;2023-02-14T14:47:47;102180.97;;;20.60;34.86
46199;BME280;31928;52.104;10.030;2023-02-14T14:50:17;102180.50;;;20.63;35.67
46199;BME280;31928;52.104;10.030;2023-02-14T14:52:47;102177.16;;;20.61;35.38
46199;BME280;31928;52.104;10.030;2023-02-14T14:55:22;102176.59;;;20.71;36.84
46199;BME280;31928;52.104;10.030;2023-02-14T14:57:55;102174.09;;;20.69;36.00
46199;BME280;31928;52.104;10.030;2023-02-14T15:00:27;102176.59;;;20.71;36.14
46199;BME280;31928;52.104;10.030;2023-02-14T15:05:32;102168.06;;;20.67;36.28
46199;BME280;31928;52.104;10.030;2023-02-14T15:08:31;102161.81;;;20.78;38.19